sensor_id;sensor_type;location;lat;lon;timestamp;P1;durP1;ratioP1;P2;durP2;ratioP2
21260;SDS011;10788;47.930;9.766;2022-07-29T00:02:09;0.00;;;0.00;;
21260;SDS011;10788;47.930;9.766;2022-07-29T00:04:35;0.10;;;0.10;;
21260;SDS011;10788;47.930;9.766;2022-07-29T00:07:02;0.10;;;0.10;;
21260;SDS011;10788;47.930;9.766;2022-07-29T00:09:28;0.03;;;0.03;;
21260;SDS011;10788;47.930;9.766;2022-07-29T00:11:54;0.10;;;0.10;;
21260;SDS011;10788;47.930;9.766;2022-07-29T00:14:24;0.00;;;0.00;;
21260;SDS011;10788;47.930;9.766;2022-07-29T00:16:49;0.00;;;0.00;;
21260;SDS011;10788;47.930;9.766;2022-07-29T00:19:15;0.00;;;0.00;;
21260;SDS011;10788;47.930;9.766;2022-07-29T00:21:41;0.10;;;0.10;;
21260;SDS011;10788;47.930;9.766;2022-07-29T00:24:06;0.10;;;0.10;;
21260;SDS011;10788;47.930;9.766;2022-07-29T00:26:32;0.10;;;0.10;;
21260;SDS011;10788;47.930;9.766;2022-07-29T00:28:58;0.10;;;0.10;;
21260;SDS011;10788;47.930;9.766;2022-07-29T00:31:25;0.00;;;0.00;;
21260;SDS011;10788;47.930;9.766;2022-07-29T00:33:51;0.00;;;0.00;;
21260;SDS011;10788;47.930;9.766;2022-07-29T00:36:16;0.10;;;0.10;;
21260;SDS011;10788;47.930;9.766;2022-07-29T00:38:42;0.00;;;0.00;;
21260;SDS011;10788;47.930;9.766;2022-07-29T00:41:10;0.10;;;0.10;;
21260;SDS011;10788;47.930;9.766;2022-07-29T00:43:36;0.10;;;0.10;;
21260;SDS011;10788;47.930;9.766;2022-07-29T00:46:02;0.10;;;0.10;;
21260;SDS011;10788;47.930;9.766;2022-07-29T00:48:28;0.10;;;0.10;;
21260;SDS011;10788;47.930;9.766;2022-07-29T00:50:54;0.10;;;0.10;;
21260;SDS011;10788;47.930;9.766;2022-07-29T00:53:22;0.10;;;0.10;;
21260;SDS011;10788;47.930;9.766;2022-07-29T00:55:48;0.10;;;0.10;;
21260;SDS011;10788;47.930;9.766;2022-07-29T00:58:13;0.10;;;0.10;;
21260;SDS011;10788;47.930;9.766;2022-07-29T01:00:39;0.10;;;0.10;;
21260;SDS011;10788;47.930;9.766;2022-07-29T01:03:06;0.10;;;0.10;;
21260;SDS011;10788;47.930;9.766;2022-07-29T01:05:32;0.00;;;0.00;;
21260;SDS011;10788;47.930;9.766;2022-07-29T01:07:59;0.10;;;0.10;;
21260;SDS011;10788;47.930;9.766;2022-07-29T01:10:26;0.10;;;0.10;;
21260;SDS011;10788;47.930;9.766;2022-07-29T01:12:53;0.00;;;0.00;;
21260;SDS011;10788;47.930;9.766;2022-07-29T01:15:21;0.10;;;0.10;;
21260;SDS011;10788;47.930;9.766;2022-07-29T01:20:27;0.10;;;0.10;;
21260;SDS011;10788;47.930;9.766;2022-07-29T01:31:41;0.10;;;0.10;;
21260;SDS011;10788;47.930;9.766;2022-07-29T01:34:11;0.10;;;0.10;;
21260;SDS011;10788;47.930;9.766;2022-07-29T01:41:40;0.10;;;0.10;;
21260;SDS011;10788;47.930;9.766;2022-07-29T01:44:18;0.00;;;0.00;;
21260;SDS011;10788;47.930;9.766;2022-07-29T01:46:56;0.07;;;0.07;;
21260;SDS011;10788;47.930;9.766;2022-07-29T01:49:25;0.00;;;0.00;;
21260;SDS011;10788;47.930;9.766;2022-07-29T01:51:57;0.00;;;0.00;;
21260;SDS011;10788;47.930;9.766;2022-07-29T01:54:35;0.10;;;0.10;;
21260;SDS011;10788;47.930;9.766;2022-07-29T01:57:04;0.10;;;0.10;;
21260;SDS011;10788;47.930;9.766;2022-07-29T01:59:33;0.00;;;0.00;;
21260;SDS011;10788;47.930;9.766;2022-07-29T02:01:59;0.00;;;0.00;;
21260;SDS011;10788;47.930;9.766;2022-07-29T02:04:27;0.00;;;0.00;;
21260;SDS011;10788;47.930;9.766;2022-07-29T02:06:55;0.00;;;0.00;;
21260;SDS011;10788;47.930;9.766;2022-07-29T02:09:25;0.00;;;0.00;;
21260;SDS011;10788;47.930;9.766;2022-07-29T02:11:52;0.00;;;0.00;;
21260;SDS011;10788;47.930;9.766;2022-07-29T02:14:20;0.00;;;0.00;;
21260;SDS011;10788;47.930;9.766;2022-07-29T02:16:47;0.00;;;0.00;;
21260;SDS011;10788;47.930;9.766;2022-07-29T02:19:17;0.00;;;0.00;;
21260;SDS011;10788;47.930;9.766;2022-07-29T02:21:44;0.00;;;0.00;;
21260;SDS011;10788;47.930;9.766;2022-07-29T02:24:11;0.00;;;0.00;;
21260;SDS011;10788;47.930;9.766;2022-07-29T02:26:39;0.00;;;0.00;;
21260;SDS011;10788;47.930;9.766;2022-07-29T02:29:06;0.10;;;0.10;;
21260;SDS011;10788;47.930;9.766;2022-07-29T02:31:34;0.00;;;0.00;;
21260;SDS011;10788;47.930;9.766;2022-07-29T02:34:05;0.00;;;0.00;;
21260;SDS011;10788;47.930;9.766;2022-07-29T02:36:33;0.00;;;0.00;;
21260;SDS011;10788;47.930;9.766;2022-07-29T02:39:00;0.00;;;0.00;;
21260;SDS011;10788;47.930;9.766;2022-07-29T02:43:55;0.00;;;0.00;;
21260;SDS011;10788;47.930;9.766;2022-07-29T02:46:29;0.00;;;0.00;;
21260;SDS011;10788;47.930;9.766;2022-07-29T02:51:41;0.00;;;0.00;;
21260;SDS011;10788;47.930;9.766;2022-07-29T02:54:10;0.00;;;0.00;;
21260;SDS011;10788;47.930;9.766;2022-07-29T02:56:39;0.00;;;0.00;;
21260;SDS011;10788;47.930;9.766;2022-07-29T02:59:08;0.00;;;0.00;;
21260;SDS011;10788;47.930;9.766;2022-07-29T03:01:36;0.00;;;0.00;;
21260;SDS011;10788;47.930;9.766;2022-07-29T03:04:06;0.03;;;0.03;;
21260;SDS011;10788;47.930;9.766;2022-07-29T03:06:34;0.00;;;0.00;;
21260;SDS011;10788;47.930;9.766;2022-07-29T03:09:02;0.10;;;0.10;;
21260;SDS011;10788;47.930;9.766;2022-07-29T03:11:28;0.00;;;0.00;;
21260;SDS011;10788;47.930;9.766;2022-07-29T03:13:54;0.00;;;0.00;;
21260;SDS011;10788;47.930;9.766;2022-07-29T03:16:21;0.00;;;0.00;;
21260;SDS011;10788;47.930;9.766;2022-07-29T03:18:48;0.00;;;0.00;;
21260;SDS011;10788;47.930;9.766;2022-07-29T03:21:14;0.10;;;0.10;;
21260;SDS011;10788;47.930;9.766;2022-07-29T03:23:43;0.10;;;0.10;;
21260;SDS011;10788;47.930;9.766;2022-07-29T03:26:12;0.00;;;0.00;;
21260;SDS011;10788;47.930;9.766;2022-07-29T03:28:38;0.00;;;0.00;;
21260;SDS011;10788;47.930;9.766;2022-07-29T03:31:04;0.00;;;0.00;;
21260;SDS011;10788;47.930;9.766;2022-07-29T03:33:30;0.00;;;0.00;;
21260;SDS011;10788;47.930;9.766;2022-07-29T03:35:56;0.10;;;0.10;;
21260;SDS011;10788;47.930;9.766;2022-07-29T03:38:23;0.03;;;0.03;;
21260;SDS011;10788;47.930;9.766;2022-07-29T03:40:51;0.07;;;0.07;;
21260;SDS011;10788;47.930;9.766;2022-07-29T03:43:20;0.00;;;0.00;;
21260;SDS011;10788;47.930;9.766;2022-07-29T03:45:49;0.00;;;0.00;;
21260;SDS011;10788;47.930;9.766;2022-07-29T03:48:18;0.00;;;0.00;;
21260;SDS011;10788;47.930;9.766;2022-07-29T03:50:46;0.00;;;0.00;;
21260;SDS011;10788;47.930;9.766;2022-07-29T03:53:12;0.00;;;0.00;;
21260;SDS011;10788;47.930;9.766;2022-07-29T03:55:41;0.00;;;0.00;;
21260;SDS011;10788;47.930;9.766;2022-07-29T03:58:10;0.00;;;0.00;;
21260;SDS011;10788;47.930;9.766;2022-07-29T04:00:37;0.00;;;0.00;;
21260;SDS011;10788;47.930;9.766;2022-07-29T04:03:04;0.00;;;0.00;;
21260;SDS011;10788;47.930;9.766;2022-07-29T04:05:30;0.00;;;0.00;;
21260;SDS011;10788;47.930;9.766;2022-07-29T04:07:55;0.10;;;0.10;;
21260;SDS011;10788;47.930;9.766;2022-07-29T04:10:21;0.10;;;0.10;;
21260;SDS011;10788;47.930;9.766;2022-07-29T04:12:50;0.00;;;0.00;;
21260;SDS011;10788;47.930;9.766;2022-07-29T04:15:16;0.00;;;0.00;;
21260;SDS011;10788;47.930;9.766;2022-07-29T04:17:42;0.00;;;0.00;;
21260;SDS011;10788;47.930;9.766;2022-07-29T04:20:08;0.00;;;0.00;;
21260;SDS011;10788;47.930;9.766;2022-07-29T04:22:34;0.00;;;0.00;;
21260;SDS011;10788;47.930;9.766;2022-07-29T04:24:59;0.00;;;0.00;;
21260;SDS011;10788;47.930;9.766;2022-07-29T04:27:25;0.00;;;0.00;;
21260;SDS011;10788;47.930;9.766;2022-07-29T04:29:51;0.00;;;0.00;;
21260;SDS011;10788;47.930;9.766;2022-07-29T04:32:16;0.00;;;0.00;;
21260;SDS011;10788;47.930;9.766;2022-07-29T04:34:42;0.00;;;0.00;;
21260;SDS011;10788;47.930;9.766;2022-07-29T04:37:08;0.00;;;0.00;;
21260;SDS011;10788;47.930;9.766;2022-07-29T04:39:33;0.00;;;0.00;;
21260;SDS011;10788;47.930;9.766;2022-07-29T04:41:59;0.00;;;0.00;;
21260;SDS011;10788;47.930;9.766;2022-07-29T04:44:24;0.00;;;0.00;;
21260;SDS011;10788;47.930;9.766;2022-07-29T04:46:50;0.00;;;0.00;;
21260;SDS011;10788;47.930;9.766;2022-07-29T04:49:16;0.00;;;0.00;;
21260;SDS011;10788;47.930;9.766;2022-07-29T04:51:42;0.00;;;0.00;;
21260;SDS011;10788;47.930;9.766;2022-07-29T04:54:07;0.00;;;0.00;;
21260;SDS011;10788;47.930;9.766;2022-07-29T04:56:33;0.00;;;0.00;;
21260;SDS011;10788;47.930;9.766;2022-07-29T04:58:58;0.00;;;0.00;;
21260;SDS011;10788;47.930;9.766;2022-07-29T05:01:24;0.00;;;0.00;;
21260;SDS011;10788;47.930;9.766;2022-07-29T05:03:50;0.00;;;0.00;;
21260;SDS011;10788;47.930;9.766;2022-07-29T05:06:15;0.00;;;0.00;;
21260;SDS011;10788;47.930;9.766;2022-07-29T05:08:41;0.00;;;0.00;;
21260;SDS011;10788;47.930;9.766;2022-07-29T05:11:07;0.10;;;0.10;;
21260;SDS011;10788;47.930;9.766;2022-07-29T05:13:32;0.00;;;0.00;;
21260;SDS011;10788;47.930;9.766;2022-07-29T05:15:58;0.00;;;0.00;;
21260;SDS011;10788;47.930;9.766;2022-07-29T05:18:25;0.00;;;0.00;;
21260;SDS011;10788;47.930;9.766;2022-07-29T05:20:50;0.00;;;0.00;;
21260;SDS011;10788;47.930;9.766;2022-07-29T05:23:16;0.00;;;0.00;;
21260;SDS011;10788;47.930;9.766;2022-07-29T05:25:42;0.00;;;0.00;;
21260;SDS011;10788;47.930;9.766;2022-07-29T05:28:08;0.00;;;0.00;;
21260;SDS011;10788;47.930;9.766;2022-07-29T05:30:34;0.00;;;0.00;;
21260;SDS011;10788;47.930;9.766;2022-07-29T05:33:00;0.00;;;0.00;;
21260;SDS011;10788;47.930;9.766;2022-07-29T05:35:25;0.00;;;0.00;;
21260;SDS011;10788;47.930;9.766;2022-07-29T05:37:51;0.00;;;0.00;;
21260;SDS011;10788;47.930;9.766;2022-07-29T05:40:17;0.00;;;0.00;;
21260;SDS011;10788;47.930;9.766;2022-07-29T05:42:42;0.00;;;0.00;;
21260;SDS011;10788;47.930;9.766;2022-07-29T05:45:08;0.03;;;0.03;;
21260;SDS011;10788;47.930;9.766;2022-07-29T05:47:34;0.00;;;0.00;;
21260;SDS011;10788;47.930;9.766;2022-07-29T05:50:00;0.00;;;0.00;;
21260;SDS011;10788;47.930;9.766;2022-07-29T05:52:25;0.03;;;0.03;;
21260;SDS011;10788;47.930;9.766;2022-07-29T05:54:51;0.00;;;0.00;;
21260;SDS011;10788;47.930;9.766;2022-07-29T05:57:17;0.00;;;0.00;;
21260;SDS011;10788;47.930;9.766;2022-07-29T05:59:44;0.00;;;0.00;;
21260;SDS011;10788;47.930;9.766;2022-07-29T06:02:09;0.10;;;0.10;;
21260;SDS011;10788;47.930;9.766;2022-07-29T06:04:36;0.10;;;0.10;;
21260;SDS011;10788;47.930;9.766;2022-07-29T06:07:02;0.07;;;0.07;;
21260;SDS011;10788;47.930;9.766;2022-07-29T06:09:27;0.00;;;0.00;;
21260;SDS011;10788;47.930;9.766;2022-07-29T06:11:53;0.10;;;0.10;;
21260;SDS011;10788;47.930;9.766;2022-07-29T06:14:19;0.10;;;0.10;;
21260;SDS011;10788;47.930;9.766;2022-07-29T06:16:44;0.10;;;0.10;;
21260;SDS011;10788;47.930;9.766;2022-07-29T06:19:10;0.10;;;0.10;;
21260;SDS011;10788;47.930;9.766;2022-07-29T06:21:36;0.10;;;0.10;;
21260;SDS011;10788;47.930;9.766;2022-07-29T06:24:01;0.07;;;0.07;;
21260;SDS011;10788;47.930;9.766;2022-07-29T06:26:27;0.10;;;0.10;;
21260;SDS011;10788;47.930;9.766;2022-07-29T06:28:53;0.00;;;0.00;;
21260;SDS011;10788;47.930;9.766;2022-07-29T06:31:18;0.00;;;0.00;;
21260;SDS011;10788;47.930;9.766;2022-07-29T06:33:44;0.00;;;0.00;;
21260;SDS011;10788;47.930;9.766;2022-07-29T06:36:09;0.10;;;0.10;;
21260;SDS011;10788;47.930;9.766;2022-07-29T06:38:35;0.00;;;0.00;;
21260;SDS011;10788;47.930;9.766;2022-07-29T06:41:03;0.00;;;0.00;;
21260;SDS011;10788;47.930;9.766;2022-07-29T06:43:40;0.10;;;0.10;;
21260;SDS011;10788;47.930;9.766;2022-07-29T06:46:08;0.10;;;0.10;;
21260;SDS011;10788;47.930;9.766;2022-07-29T06:48:35;0.03;;;0.03;;
21260;SDS011;10788;47.930;9.766;2022-07-29T06:51:02;0.00;;;0.00;;
21260;SDS011;10788;47.930;9.766;2022-07-29T06:53:28;0.10;;;0.10;;
21260;SDS011;10788;47.930;9.766;2022-07-29T06:55:56;0.10;;;0.10;;
21260;SDS011;10788;47.930;9.766;2022-07-29T06:58:23;0.03;;;0.03;;
21260;SDS011;10788;47.930;9.766;2022-07-29T07:00:49;0.10;;;0.10;;
21260;SDS011;10788;47.930;9.766;2022-07-29T07:03:15;0.10;;;0.10;;
21260;SDS011;10788;47.930;9.766;2022-07-29T07:05:42;0.03;;;0.03;;
21260;SDS011;10788;47.930;9.766;2022-07-29T07:08:07;0.00;;;0.00;;
21260;SDS011;10788;47.930;9.766;2022-07-29T07:10:34;0.00;;;0.00;;
21260;SDS011;10788;47.930;9.766;2022-07-29T07:13:00;0.00;;;0.00;;
21260;SDS011;10788;47.930;9.766;2022-07-29T07:15:25;0.03;;;0.03;;
21260;SDS011;10788;47.930;9.766;2022-07-29T07:17:52;0.00;;;0.00;;
21260;SDS011;10788;47.930;9.766;2022-07-29T07:20:17;0.00;;;0.00;;
21260;SDS011;10788;47.930;9.766;2022-07-29T07:22:43;0.10;;;0.10;;
21260;SDS011;10788;47.930;9.766;2022-07-29T07:25:09;0.10;;;0.10;;
21260;SDS011;10788;47.930;9.766;2022-07-29T07:27:35;0.10;;;0.10;;
21260;SDS011;10788;47.930;9.766;2022-07-29T07:30:02;0.00;;;0.00;;
21260;SDS011;10788;47.930;9.766;2022-07-29T07:32:34;0.00;;;0.00;;
21260;SDS011;10788;47.930;9.766;2022-07-29T07:35:01;0.00;;;0.00;;
21260;SDS011;10788;47.930;9.766;2022-07-29T07:37:27;0.10;;;0.10;;
21260;SDS011;10788;47.930;9.766;2022-07-29T07:39:53;0.10;;;0.10;;
21260;SDS011;10788;47.930;9.766;2022-07-29T07:42:19;0.10;;;0.10;;
21260;SDS011;10788;47.930;9.766;2022-07-29T07:44:45;0.10;;;0.10;;
21260;SDS011;10788;47.930;9.766;2022-07-29T07:47:11;0.10;;;0.10;;
21260;SDS011;10788;47.930;9.766;2022-07-29T07:49:37;0.10;;;0.10;;
21260;SDS011;10788;47.930;9.766;2022-07-29T07:52:03;0.10;;;0.10;;
21260;SDS011;10788;47.930;9.766;2022-07-29T07:54:29;0.00;;;0.00;;
21260;SDS011;10788;47.930;9.766;2022-07-29T07:56:55;0.10;;;0.10;;
21260;SDS011;10788;47.930;9.766;2022-07-29T07:59:21;0.10;;;0.10;;
21260;SDS011;10788;47.930;9.766;2022-07-29T08:01:47;0.00;;;0.00;;
21260;SDS011;10788;47.930;9.766;2022-07-29T08:04:12;0.07;;;0.07;;
21260;SDS011;10788;47.930;9.766;2022-07-29T08:06:38;0.10;;;0.10;;
21260;SDS011;10788;47.930;9.766;2022-07-29T08:09:04;0.10;;;0.10;;
21260;SDS011;10788;47.930;9.766;2022-07-29T08:11:30;0.10;;;0.10;;
21260;SDS011;10788;47.930;9.766;2022-07-29T08:13:56;0.10;;;0.10;;
21260;SDS011;10788;47.930;9.766;2022-07-29T08:16:22;0.00;;;0.00;;
21260;SDS011;10788;47.930;9.766;2022-07-29T08:18:50;0.10;;;0.10;;
21260;SDS011;10788;47.930;9.766;2022-07-29T08:21:17;0.10;;;0.10;;
21260;SDS011;10788;47.930;9.766;2022-07-29T08:23:43;0.10;;;0.10;;
21260;SDS011;10788;47.930;9.766;2022-07-29T08:26:15;0.10;;;0.10;;
21260;SDS011;10788;47.930;9.766;2022-07-29T08:28:42;0.00;;;0.00;;
21260;SDS011;10788;47.930;9.766;2022-07-29T08:31:13;0.10;;;0.10;;
21260;SDS011;10788;47.930;9.766;2022-07-29T08:33:39;0.00;;;0.00;;
21260;SDS011;10788;47.930;9.766;2022-07-29T08:36:06;0.10;;;0.10;;
21260;SDS011;10788;47.930;9.766;2022-07-29T08:38:32;0.10;;;0.10;;
21260;SDS011;10788;47.930;9.766;2022-07-29T08:40:58;0.10;;;0.10;;
21260;SDS011;10788;47.930;9.766;2022-07-29T08:43:25;0.10;;;0.10;;
21260;SDS011;10788;47.930;9.766;2022-07-29T08:45:52;0.10;;;0.10;;
21260;SDS011;10788;47.930;9.766;2022-07-29T08:48:19;0.10;;;0.10;;
21260;SDS011;10788;47.930;9.766;2022-07-29T08:50:47;0.10;;;0.10;;
21260;SDS011;10788;47.930;9.766;2022-07-29T08:53:15;0.00;;;0.00;;
21260;SDS011;10788;47.930;9.766;2022-07-29T08:55:42;0.03;;;0.03;;
21260;SDS011;10788;47.930;9.766;2022-07-29T08:58:09;0.10;;;0.10;;
21260;SDS011;10788;47.930;9.766;2022-07-29T09:00:36;0.10;;;0.10;;
21260;SDS011;10788;47.930;9.766;2022-07-29T09:03:05;0.10;;;0.10;;
21260;SDS011;10788;47.930;9.766;2022-07-29T09:05:32;0.10;;;0.10;;
21260;SDS011;10788;47.930;9.766;2022-07-29T09:07:59;0.10;;;0.10;;
21260;SDS011;10788;47.930;9.766;2022-07-29T09:10:25;0.00;;;0.00;;
21260;SDS011;10788;47.930;9.766;2022-07-29T09:12:51;0.13;;;0.13;;
21260;SDS011;10788;47.930;9.766;2022-07-29T09:15:19;0.10;;;0.10;;
21260;SDS011;10788;47.930;9.766;2022-07-29T09:17:46;0.10;;;0.10;;
21260;SDS011;10788;47.930;9.766;2022-07-29T09:20:15;0.10;;;0.10;;
21260;SDS011;10788;47.930;9.766;2022-07-29T09:22:42;0.10;;;0.10;;
21260;SDS011;10788;47.930;9.766;2022-07-29T09:25:11;0.10;;;0.10;;
21260;SDS011;10788;47.930;9.766;2022-07-29T09:27:37;0.10;;;0.10;;
21260;SDS011;10788;47.930;9.766;2022-07-29T09:32:53;0.10;;;0.10;;
21260;SDS011;10788;47.930;9.766;2022-07-29T09:35:21;0.20;;;0.20;;
21260;SDS011;10788;47.930;9.766;2022-07-29T09:37:48;0.10;;;0.10;;
21260;SDS011;10788;47.930;9.766;2022-07-29T09:40:15;0.10;;;0.10;;
21260;SDS011;10788;47.930;9.766;2022-07-29T09:42:42;0.10;;;0.10;;
21260;SDS011;10788;47.930;9.766;2022-07-29T09:45:09;0.10;;;0.10;;
21260;SDS011;10788;47.930;9.766;2022-07-29T09:47:54;0.10;;;0.10;;
21260;SDS011;10788;47.930;9.766;2022-07-29T09:50:22;0.10;;;0.10;;
21260;SDS011;10788;47.930;9.766;2022-07-29T09:52:51;0.20;;;0.20;;
21260;SDS011;10788;47.930;9.766;2022-07-29T09:55:20;0.10;;;0.10;;
21260;SDS011;10788;47.930;9.766;2022-07-29T09:57:46;0.10;;;0.10;;
21260;SDS011;10788;47.930;9.766;2022-07-29T10:02:40;0.10;;;0.10;;
21260;SDS011;10788;47.930;9.766;2022-07-29T10:07:54;0.10;;;0.10;;
21260;SDS011;10788;47.930;9.766;2022-07-29T10:10:25;0.20;;;0.20;;
21260;SDS011;10788;47.930;9.766;2022-07-29T10:13:03;0.17;;;0.17;;
21260;SDS011;10788;47.930;9.766;2022-07-29T10:15:37;0.10;;;0.10;;
21260;SDS011;10788;47.930;9.766;2022-07-29T10:18:09;0.10;;;0.10;;
21260;SDS011;10788;47.930;9.766;2022-07-29T10:20:37;0.10;;;0.10;;
21260;SDS011;10788;47.930;9.766;2022-07-29T10:23:04;0.20;;;0.20;;
21260;SDS011;10788;47.930;9.766;2022-07-29T10:25:30;0.10;;;0.10;;
21260;SDS011;10788;47.930;9.766;2022-07-29T10:27:56;0.13;;;0.13;;
21260;SDS011;10788;47.930;9.766;2022-07-29T10:30:23;0.10;;;0.10;;
21260;SDS011;10788;47.930;9.766;2022-07-29T10:46:25;0.10;;;0.10;;
21260;SDS011;10788;47.930;9.766;2022-07-29T10:59:44;0.20;;;0.20;;
21260;SDS011;10788;47.930;9.766;2022-07-29T11:07:21;0.10;;;0.10;;
21260;SDS011;10788;47.930;9.766;2022-07-29T11:15:06;0.10;;;0.10;;
21260;SDS011;10788;47.930;9.766;2022-07-29T11:18:02;0.10;;;0.10;;
21260;SDS011;10788;47.930;9.766;2022-07-29T11:28:55;0.10;;;0.10;;
21260;SDS011;10788;47.930;9.766;2022-07-29T11:39:32;0.10;;;0.10;;
21260;SDS011;10788;47.930;9.766;2022-07-29T11:47:23;0.10;;;0.10;;
21260;SDS011;10788;47.930;9.766;2022-07-29T11:49:56;0.10;;;0.10;;
21260;SDS011;10788;47.930;9.766;2022-07-29T11:52:22;0.10;;;0.10;;
21260;SDS011;10788;47.930;9.766;2022-07-29T11:54:49;0.10;;;0.10;;
21260;SDS011;10788;47.930;9.766;2022-07-29T11:57:16;0.10;;;0.10;;
21260;SDS011;10788;47.930;9.766;2022-07-29T11:59:43;0.10;;;0.10;;
21260;SDS011;10788;47.930;9.766;2022-07-29T12:02:10;0.10;;;0.10;;
21260;SDS011;10788;47.930;9.766;2022-07-29T12:07:26;0.10;;;0.10;;
21260;SDS011;10788;47.930;9.766;2022-07-29T12:09:55;0.10;;;0.10;;
21260;SDS011;10788;47.930;9.766;2022-07-29T12:12:21;0.10;;;0.10;;
21260;SDS011;10788;47.930;9.766;2022-07-29T12:14:47;0.10;;;0.10;;
21260;SDS011;10788;47.930;9.766;2022-07-29T12:17:32;0.10;;;0.10;;
21260;SDS011;10788;47.930;9.766;2022-07-29T12:20:00;0.10;;;0.10;;
21260;SDS011;10788;47.930;9.766;2022-07-29T12:22:32;0.10;;;0.10;;
21260;SDS011;10788;47.930;9.766;2022-07-29T12:25:03;0.10;;;0.10;;
21260;SDS011;10788;47.930;9.766;2022-07-29T12:27:30;0.10;;;0.10;;
21260;SDS011;10788;47.930;9.766;2022-07-29T12:30:00;0.10;;;0.10;;
21260;SDS011;10788;47.930;9.766;2022-07-29T12:35:12;0.20;;;0.20;;
21260;SDS011;10788;47.930;9.766;2022-07-29T12:37:43;0.10;;;0.10;;
21260;SDS011;10788;47.930;9.766;2022-07-29T12:40:11;0.10;;;0.10;;
21260;SDS011;10788;47.930;9.766;2022-07-29T12:42:38;0.10;;;0.10;;
21260;SDS011;10788;47.930;9.766;2022-07-29T12:45:04;0.20;;;0.20;;
21260;SDS011;10788;47.930;9.766;2022-07-29T12:47:31;0.10;;;0.10;;
21260;SDS011;10788;47.930;9.766;2022-07-29T12:50:07;0.10;;;0.10;;
21260;SDS011;10788;47.930;9.766;2022-07-29T12:52:40;0.10;;;0.10;;
21260;SDS011;10788;47.930;9.766;2022-07-29T12:55:06;0.10;;;0.10;;
21260;SDS011;10788;47.930;9.766;2022-07-29T12:57:32;0.20;;;0.20;;
21260;SDS011;10788;47.930;9.766;2022-07-29T13:00:10;0.20;;;0.20;;
21260;SDS011;10788;47.930;9.766;2022-07-29T13:02:38;0.10;;;0.10;;
21260;SDS011;10788;47.930;9.766;2022-07-29T13:05:05;0.20;;;0.20;;
21260;SDS011;10788;47.930;9.766;2022-07-29T13:07:33;0.10;;;0.10;;
21260;SDS011;10788;47.930;9.766;2022-07-29T13:10:17;0.10;;;0.10;;
21260;SDS011;10788;47.930;9.766;2022-07-29T13:15:40;0.10;;;0.10;;
21260;SDS011;10788;47.930;9.766;2022-07-29T13:20:55;0.10;;;0.10;;
21260;SDS011;10788;47.930;9.766;2022-07-29T13:23:22;0.10;;;0.10;;
21260;SDS011;10788;47.930;9.766;2022-07-29T13:25:48;0.20;;;0.20;;
21260;SDS011;10788;47.930;9.766;2022-07-29T13:28:13;0.10;;;0.10;;
21260;SDS011;10788;47.930;9.766;2022-07-29T13:30:39;0.10;;;0.10;;
21260;SDS011;10788;47.930;9.766;2022-07-29T13:33:08;0.20;;;0.20;;
21260;SDS011;10788;47.930;9.766;2022-07-29T13:35:34;0.10;;;0.10;;
21260;SDS011;10788;47.930;9.766;2022-07-29T13:38:00;0.13;;;0.13;;
21260;SDS011;10788;47.930;9.766;2022-07-29T13:40:25;0.20;;;0.20;;
21260;SDS011;10788;47.930;9.766;2022-07-29T13:42:51;0.20;;;0.20;;
21260;SDS011;10788;47.930;9.766;2022-07-29T13:45:17;0.23;;;0.23;;
21260;SDS011;10788;47.930;9.766;2022-07-29T13:47:42;0.20;;;0.20;;
21260;SDS011;10788;47.930;9.766;2022-07-29T13:50:08;0.20;;;0.20;;
21260;SDS011;10788;47.930;9.766;2022-07-29T13:52:35;0.20;;;0.20;;
21260;SDS011;10788;47.930;9.766;2022-07-29T13:55:03;0.20;;;0.20;;
21260;SDS011;10788;47.930;9.766;2022-07-29T13:57:29;0.20;;;0.20;;
21260;SDS011;10788;47.930;9.766;2022-07-29T13:59:55;0.20;;;0.20;;
21260;SDS011;10788;47.930;9.766;2022-07-29T14:02:21;0.10;;;0.10;;
21260;SDS011;10788;47.930;9.766;2022-07-29T14:04:47;0.10;;;0.10;;
21260;SDS011;10788;47.930;9.766;2022-07-29T14:07:13;0.10;;;0.10;;
21260;SDS011;10788;47.930;9.766;2022-07-29T14:09:38;0.20;;;0.20;;
21260;SDS011;10788;47.930;9.766;2022-07-29T14:12:04;0.13;;;0.13;;
21260;SDS011;10788;47.930;9.766;2022-07-29T14:14:30;0.10;;;0.10;;
21260;SDS011;10788;47.930;9.766;2022-07-29T14:16:57;0.20;;;0.20;;
21260;SDS011;10788;47.930;9.766;2022-07-29T14:19:23;0.10;;;0.10;;
21260;SDS011;10788;47.930;9.766;2022-07-29T14:21:49;0.10;;;0.10;;
21260;SDS011;10788;47.930;9.766;2022-07-29T14:24:15;0.10;;;0.10;;
21260;SDS011;10788;47.930;9.766;2022-07-29T14:26:40;0.17;;;0.17;;
21260;SDS011;10788;47.930;9.766;2022-07-29T14:29:06;0.10;;;0.10;;
21260;SDS011;10788;47.930;9.766;2022-07-29T14:31:32;0.10;;;0.10;;
21260;SDS011;10788;47.930;9.766;2022-07-29T14:33:57;0.10;;;0.10;;
21260;SDS011;10788;47.930;9.766;2022-07-29T14:36:23;0.10;;;0.10;;
21260;SDS011;10788;47.930;9.766;2022-07-29T14:38:48;0.10;;;0.10;;
21260;SDS011;10788;47.930;9.766;2022-07-29T14:41:14;0.10;;;0.10;;
21260;SDS011;10788;47.930;9.766;2022-07-29T14:43:40;0.13;;;0.13;;
21260;SDS011;10788;47.930;9.766;2022-07-29T14:46:06;0.10;;;0.10;;
21260;SDS011;10788;47.930;9.766;2022-07-29T14:48:32;0.10;;;0.10;;
21260;SDS011;10788;47.930;9.766;2022-07-29T14:50:58;0.10;;;0.10;;
21260;SDS011;10788;47.930;9.766;2022-07-29T14:53:24;0.10;;;0.10;;
21260;SDS011;10788;47.930;9.766;2022-07-29T14:55:50;0.10;;;0.10;;
21260;SDS011;10788;47.930;9.766;2022-07-29T14:58:15;0.10;;;0.10;;
21260;SDS011;10788;47.930;9.766;2022-07-29T15:00:41;0.10;;;0.10;;
21260;SDS011;10788;47.930;9.766;2022-07-29T15:03:07;0.10;;;0.10;;
21260;SDS011;10788;47.930;9.766;2022-07-29T15:05:35;0.10;;;0.10;;
21260;SDS011;10788;47.930;9.766;2022-07-29T15:08:01;0.10;;;0.10;;
21260;SDS011;10788;47.930;9.766;2022-07-29T15:10:27;0.10;;;0.10;;
21260;SDS011;10788;47.930;9.766;2022-07-29T15:12:53;0.10;;;0.10;;
21260;SDS011;10788;47.930;9.766;2022-07-29T15:15:19;0.10;;;0.10;;
21260;SDS011;10788;47.930;9.766;2022-07-29T15:17:45;0.10;;;0.10;;
21260;SDS011;10788;47.930;9.766;2022-07-29T15:20:11;0.10;;;0.10;;
21260;SDS011;10788;47.930;9.766;2022-07-29T15:22:37;0.10;;;0.10;;
21260;SDS011;10788;47.930;9.766;2022-07-29T15:25:03;0.10;;;0.10;;
21260;SDS011;10788;47.930;9.766;2022-07-29T15:27:29;0.10;;;0.10;;
21260;SDS011;10788;47.930;9.766;2022-07-29T15:29:55;0.10;;;0.10;;
21260;SDS011;10788;47.930;9.766;2022-07-29T15:32:21;0.10;;;0.10;;
21260;SDS011;10788;47.930;9.766;2022-07-29T15:34:46;0.10;;;0.10;;
21260;SDS011;10788;47.930;9.766;2022-07-29T15:37:12;0.10;;;0.10;;
21260;SDS011;10788;47.930;9.766;2022-07-29T15:39:38;0.10;;;0.10;;
21260;SDS011;10788;47.930;9.766;2022-07-29T15:42:03;0.10;;;0.10;;
21260;SDS011;10788;47.930;9.766;2022-07-29T15:44:29;0.10;;;0.10;;
21260;SDS011;10788;47.930;9.766;2022-07-29T15:46:56;0.10;;;0.10;;
21260;SDS011;10788;47.930;9.766;2022-07-29T15:51:59;0.00;;;0.00;;
21260;SDS011;10788;47.930;9.766;2022-07-29T15:54:27;0.00;;;0.00;;
21260;SDS011;10788;47.930;9.766;2022-07-29T15:56:53;0.00;;;0.00;;
21260;SDS011;10788;47.930;9.766;2022-07-29T15:59:20;0.00;;;0.00;;
21260;SDS011;10788;47.930;9.766;2022-07-29T16:01:46;0.00;;;0.00;;
21260;SDS011;10788;47.930;9.766;2022-07-29T16:04:12;0.00;;;0.00;;
21260;SDS011;10788;47.930;9.766;2022-07-29T16:06:38;0.00;;;0.00;;
21260;SDS011;10788;47.930;9.766;2022-07-29T16:09:03;0.00;;;0.00;;
21260;SDS011;10788;47.930;9.766;2022-07-29T16:11:29;0.00;;;0.00;;
21260;SDS011;10788;47.930;9.766;2022-07-29T16:13:55;0.00;;;0.00;;
21260;SDS011;10788;47.930;9.766;2022-07-29T16:16:20;0.00;;;0.00;;
21260;SDS011;10788;47.930;9.766;2022-07-29T16:18:46;0.00;;;0.00;;
21260;SDS011;10788;47.930;9.766;2022-07-29T16:21:12;0.00;;;0.00;;
21260;SDS011;10788;47.930;9.766;2022-07-29T16:23:38;0.00;;;0.00;;
21260;SDS011;10788;47.930;9.766;2022-07-29T16:26:04;0.00;;;0.00;;
21260;SDS011;10788;47.930;9.766;2022-07-29T16:28:30;0.00;;;0.00;;